La Guardia Airport
KLGA : now visible

Airfield :











YOU CAN JOIN US ON...

 
LOGIN :

Register | Disclaimer

   EN    FR    IT 

 









Legend :    VFR   Marginal VFR   IFR   Intensive IFR   Very Intensive IFR
Visi :
Ceiling :
>= 8 km
>= 3000ft
5 to 8 km
1000 to 3000 ft
1500m to 5 km
500 to 1000 ft
800 to 1500m
200 to 500 ft
< 800m
< 200 ft
Symbols :   Thunderstorms  Fog  Heavy snow  Heavy precipitations  Wind > 20 kt






- Airport Elevation : 21 ft
- IATA code : LGA


KLGA - La Guardia

CURRENT METAR :
  • 021551Z 31009KT 10SM FEW040 SCT070 BKN150 BKN220 30/17 A2991 RMK AO2 SLP127 T03000172 $

EXPIRED METARs :
  • 021451Z VRB06KT 10SM FEW022 SCT070 BKN150 BKN220 29/17 A2989 RMK AO2 SLP122 T02940172 58008 $
  • 020251Z 23010G20KT 10SM FEW200 BKN250 29/18 A2993 RMK AO2 PK WND 23027/0220 SLP136 T02890178 53005 $
  • 021351Z 25008KT 10SM FEW022 SCT070 BKN150 OVC220 28/19 A2991 RMK AO2 SLP128 T02830194 $

TAF KLGA
Valid from the 02 at 14:00 until the 03 at 18:00 UTC


021416Z 0214/0318 24010KT P6SM VCSH SCT040 BKN060
FM021900 23012KT 6SM -SHRA BR SCT040 BKN060
TEMPO 0220/0224 3SM TSRA BKN040CB
FM030000 26008KT P6SM SCT060
PROB30 0300/0306 4SM -SHRA BKN060
FM030600 30006KT P6SM BKN100
FM031500 33008KT P6SM SCT040 BKN250
KZNY FIR / North America



MET'MAP, your aeronautical weather chart ! - Copyright ORBIFLY December 2007 - Disclaimer

ORBIFLY MET'MAP TEAM :

Programming & Development : Alexandra Zaïnal
Original concept : Baudouin d'Aumeries
Technical & hardware support : Manuel Goepfert
Assistance : Marc-Olivier Méhu




SOURCES & CREDITS :

   NOAA       Earth
Advisory